Time;durP1;ratioP1;P1;durP2;ratioP2;P2;SDS_P1;SDS_P2;PMS_P1;PMS_P2;Temp;Humidity;BMP_temperature;BMP_pressure;BME280_temperature;BME280_humidity;BME280_pressure;Samples;Min_cycle;Max_cycle;Signal;HPM_P1;HPM_P2
2022/10/06 00:09:46;;;;;;;4.10;3.00;;;;;;;12.29;76.58;99187.27;432577;1270;97595;-41
2022/10/06 00:19:53;;;;;;;5.00;2.80;;;;;;;12.28;76.60;99198.07;432377;1270;111034;-41
2022/10/06 00:30:00;;;;;;;8.20;3.20;;;;;;;12.27;76.77;99200.59;432504;1270;107867;-41
2022/10/06 00:40:08;;;;;;;7.70;3.70;;;;;;;12.18;76.81;99200.41;432408;1270;98049;-41
2022/10/06 00:50:14;;;;;;;5.80;2.80;;;;;;;12.13;76.82;99192.52;432580;1270;111407;-41
2022/10/06 01:00:20;;;;;;;4.90;3.00;;;;;;;12.17;76.96;99193.40;432477;1270;108859;-41
2022/10/06 01:20:50;;;;;;;8.20;3.40;;;;;;;12.12;77.15;99194.95;431632;1265;102180;-40
2022/10/06 01:30:57;;;;;;;4.30;3.30;;;;;;;12.06;77.12;99194.21;431086;1274;108772;-40
2022/10/06 01:41:04;;;;;;;5.30;2.90;;;;;;;12.02;77.22;99193.41;431213;1274;96607;-40
2022/10/06 01:51:14;;;;;;;6.20;3.30;;;;;;;12.04;77.32;99191.02;431061;1274;108800;-40
2022/10/06 02:01:22;;;;;;;5.10;3.30;;;;;;;12.00;77.59;99187.64;431153;1274;97937;-41
2022/10/06 02:11:30;;;;;;;3.70;3.00;;;;;;;11.97;77.57;99194.48;431060;1274;111057;-41
2022/10/06 02:21:37;;;;;;;6.20;3.20;;;;;;;11.96;77.64;99195.77;431023;1274;108796;-41
2022/10/06 02:31:45;;;;;;;6.80;3.70;;;;;;;11.94;77.86;99201.91;430830;1274;97534;-41
2022/10/06 02:41:52;;;;;;;7.30;4.50;;;;;;;11.83;77.99;99199.86;431044;1274;110895;-41
2022/10/06 02:51:59;;;;;;;5.50;3.60;;;;;;;11.75;77.95;99205.38;430898;1273;109032;-41
2022/10/06 03:02:06;;;;;;;3.70;3.20;;;;;;;11.72;78.06;99204.45;430933;1274;97609;-41
2022/10/06 03:12:14;;;;;;;9.70;4.60;;;;;;;11.72;78.25;99208.53;431102;1274;111180;-41
2022/10/06 03:22:21;;;;;;;7.10;4.70;;;;;;;11.66;78.43;99214.67;430867;1274;109254;-40
2022/10/06 03:32:28;;;;;;;8.70;5.00;;;;;;;11.53;78.56;99220.75;430755;1274;97709;-42
2022/10/06 03:42:35;;;;;;;5.80;3.80;;;;;;;11.47;78.73;99221.60;430953;1274;111134;-42
2022/10/06 03:52:42;;;;;;;6.90;3.70;;;;;;;11.50;78.80;99229.77;430975;1274;108795;-40
2022/10/06 04:02:51;;;;;;;4.90;4.10;;;;;;;11.53;79.00;99234.77;430978;1273;96599;-40
2022/10/06 04:12:58;;;;;;;7.50;4.30;;;;;;;11.55;79.09;99245.59;430648;1274;108761;-42
2022/10/06 04:23:05;;;;;;;6.10;4.20;;;;;;;11.52;79.25;99260.70;430868;1274;98201;-40
2022/10/06 04:33:14;;;;;;;12.40;5.50;;;;;;;11.41;79.38;99261.88;430960;1274;111289;-39
2022/10/06 04:43:21;;;;;;;9.10;4.30;;;;;;;11.33;79.42;99272.63;431082;1274;107855;-39
2022/10/06 04:53:30;;;;;;;14.70;5.20;;;;;;;11.33;79.54;99268.46;430949;1274;96681;-39
2022/10/06 05:03:38;;;;;;;8.50;5.40;;;;;;;11.34;79.65;99275.54;430743;1274;111024;-41
2022/10/06 05:23:52;;;;;;;8.70;5.50;;;;;;;11.43;79.94;99286.84;431113;1274;98211;-40
2022/10/06 05:34:00;;;;;;;23.00;6.10;;;;;;;11.47;79.92;99305.49;430859;1273;111297;-41
2022/10/06 05:54:16;;;;;;;8.90;4.80;;;;;;;11.92;79.96;99337.42;430979;1274;96680;-41
2022/10/06 06:04:23;;;;;;;7.10;4.70;;;;;;;12.07;79.92;99347.29;430907;1274;111234;-40
2022/10/06 06:24:56;;;;;;;7.70;5.30;;;;;;;13.42;80.00;99377.23;430678;1274;97925;-41
2022/10/06 06:35:03;;;;;;;4.90;4.00;;;;;;;14.24;79.66;99395.81;430919;1274;110451;-41
2022/10/06 06:45:11;;;;;;;12.00;4.80;;;;;;;15.02;78.46;99405.91;430986;1274;108840;-40
2022/10/06 06:55:18;;;;;;;9.20;5.00;;;;;;;15.15;78.17;99423.71;430817;1274;97898;-41
2022/10/06 07:05:25;;;;;;;7.10;4.90;;;;;;;15.33;78.16;99436.51;430624;1274;111385;-40
2022/10/06 07:25:58;;;;;;;9.10;5.40;;;;;;;15.57;77.43;99460.05;430879;1274;97730;-41
2022/10/06 07:36:05;;;;;;;9.70;5.30;;;;;;;16.25;77.59;99464.86;430975;1274;111384;-41
2022/10/06 07:46:12;;;;;;;8.30;3.90;;;;;;;17.19;77.68;99467.67;430736;1274;109014;-40
2022/10/06 07:56:20;;;;;;;10.20;4.00;;;;;;;18.16;76.97;99467.91;430953;1274;96616;-41
2022/10/06 08:06:27;;;;;;;6.00;3.60;;;;;;;18.82;75.91;99477.56;430877;1274;98006;-40
2022/10/06 08:16:35;;;;;;;6.50;3.90;;;;;;;19.32;74.99;99475.88;430849;1274;111355;-40
2022/10/06 08:26:42;;;;;;;;;;;;;;;19.71;74.16;99479.79;430801;1274;108829;-39
2022/10/06 08:36:50;;;;;;;8.30;3.60;;;;;;;19.97;73.80;99500.34;431017;1274;108841;-40
2022/10/06 08:47:21;;;;;;;6.50;3.80;;;;;;;20.41;72.44;99525.16;430964;1274;97834;-40
2022/10/06 08:57:31;;;;;;;6.50;4.00;;;;;;;20.59;71.31;99538.45;430945;1274;111212;-41
2022/10/06 09:17:53;;;;;;;8.90;3.10;;;;;;;20.43;69.89;99555.52;430834;1274;97897;-40
2022/10/06 09:28:02;;;;;;;5.30;2.70;;;;;;;20.53;69.62;99556.15;431243;1274;98000;-39
2022/10/06 09:38:10;;;;;;;4.00;2.70;;;;;;;20.73;69.48;99556.09;430886;1274;111098;-40
2022/10/06 09:48:23;;;;;;;4.50;2.90;;;;;;;21.03;69.19;99561.90;431163;1274;108929;-40
2022/10/06 09:58:33;;;;;;;4.80;2.70;;;;;;;21.14;68.31;99568.27;430938;1274;97908;-41
2022/10/06 10:08:40;;;;;;;3.10;2.10;;;;;;;21.19;67.96;99582.02;430617;1274;98181;-42
2022/10/06 10:18:51;;;;;;;4.60;2.60;;;;;;;21.13;67.23;99603.70;430541;1274;229104;-40
2022/10/06 10:39:43;;;;;;;4.90;2.70;;;;;;;20.00;66.79;99620.55;431501;1274;108986;-40
2022/10/06 10:49:57;;;;;;;8.10;2.80;;;;;;;19.84;67.06;99620.37;431452;1274;97704;-40
2022/10/06 11:00:06;;;;;;;5.90;2.70;;;;;;;19.71;67.36;99633.45;432258;1274;111831;-41
2022/10/06 11:10:17;;;;;;;8.70;3.30;;;;;;;19.40;67.33;99637.34;431872;1274;108019;-41
2022/10/06 11:20:44;;;;;;;7.30;2.80;;;;;;;19.38;68.12;99647.04;431812;1274;96680;-42
2022/10/06 11:30:59;;;;;;;5.50;2.70;;;;;;;19.46;68.64;99654.36;431822;1274;111064;-40
2022/10/06 11:41:12;;;;;;;3.70;3.10;;;;;;;19.08;68.63;99664.91;431859;1274;108996;-40
2022/10/06 11:51:36;;;;;;;4.70;3.10;;;;;;;18.96;69.01;99667.86;431929;1274;97894;-39
2022/10/06 12:01:56;;;;;;;5.70;2.50;;;;;;;19.08;69.16;99685.81;431777;1274;111067;-41
2022/10/06 12:22:52;;;;;;;6.30;3.90;;;;;;;18.56;68.82;99703.81;431767;1274;97924;-41
2022/10/06 12:33:04;;;;;;;6.20;3.00;;;;;;;18.37;69.28;99713.66;431931;1274;110758;-42
2022/10/06 12:43:31;;;;;;;4.90;3.30;;;;;;;18.81;69.42;99715.66;431756;1274;108873;-40
2022/10/06 12:53:36;;;;;;;5.40;3.60;;;;;;;19.12;68.99;99714.16;431235;1275;98445;-40
2022/10/06 13:03:47;;;;;;;5.20;3.10;;;;;;;19.06;68.70;99714.49;430754;1275;97897;-41
2022/10/06 13:13:57;;;;;;;5.90;3.60;;;;;;;18.81;69.02;99723.16;430619;1276;107703;-41
2022/10/06 13:24:05;;;;;;;5.00;3.70;;;;;;;18.89;69.11;99726.18;430846;1276;107902;-41
2022/10/06 13:34:15;;;;;;;5.90;4.00;;;;;;;18.93;69.18;99741.96;430929;1275;97528;-40
2022/10/06 13:54:39;;;;;;;7.90;3.40;;;;;;;18.28;69.74;99755.20;430806;1276;109184;-40
2022/10/06 14:05:07;;;;;;;6.40;5.00;;;;;;;18.30;69.99;99764.47;430712;1276;97536;-40
2022/10/06 14:25:22;;;;;;;6.80;4.10;;;;;;;17.67;70.49;99778.98;430702;1275;109644;-41
2022/10/06 14:35:29;;;;;;;5.60;3.70;;;;;;;17.48;70.74;99788.27;430656;1276;108786;-40
2022/10/06 14:45:39;;;;;;;7.70;3.70;;;;;;;17.28;70.73;99800.35;430501;1276;97936;-40
2022/10/06 14:55:47;;;;;;;4.60;3.50;;;;;;;17.20;71.12;99801.61;430619;1276;108791;-40
2022/10/06 15:16:28;;;;;;;2.90;2.00;;;;;;;16.96;70.61;99822.55;430609;1276;111724;-40
2022/10/06 15:37:01;;;;;;;4.00;1.80;;;;;;;16.51;70.49;99844.05;431400;1273;98622;-40
2022/10/06 15:47:10;;;;;;;5.80;2.40;;;;;;;16.33;70.61;99849.65;431906;1274;109044;-41
2022/10/06 15:57:17;;;;;;;6.60;3.70;;;;;;;16.02;70.70;99861.86;431791;1273;109851;-40
2022/10/06 16:27:41;;;;;;;8.80;4.40;;;;;;;15.00;71.19;99881.45;431654;1274;108899;-41
2022/10/06 16:47:54;;;;;;;21.10;14.50;;;;;;;14.34;71.96;99911.30;431726;1274;97506;-39
2022/10/06 16:58:01;;;;;;;15.90;9.90;;;;;;;13.90;72.16;99929.61;431747;1274;110247;-39
2022/10/06 17:08:08;;;;;;;18.70;9.10;;;;;;;13.63;72.48;99946.90;431489;1274;108604;-41
2022/10/06 17:18:16;;;;;;;18.80;8.80;;;;;;;13.45;73.06;99949.91;431199;1274;98655;-40
2022/10/06 17:28:24;;;;;;;25.20;10.00;;;;;;;13.35;73.58;99955.99;431383;1274;107813;-40
2022/10/06 17:38:31;;;;;;;20.60;10.50;;;;;;;13.16;73.85;99969.21;431492;1274;98528;-40
2022/10/06 17:48:38;;;;;;;19.30;11.70;;;;;;;12.91;74.13;99972.73;431099;1274;97877;-41
2022/10/06 17:58:53;;;;;;;16.60;9.90;;;;;;;12.61;74.17;99981.23;431566;1274;110735;-40
2022/10/06 18:09:01;;;;;;;16.40;10.30;;;;;;;12.38;74.42;99990.80;430979;1274;108785;-40
2022/10/06 18:19:08;;;;;;;23.60;12.10;;;;;;;12.22;74.76;99995.20;431718;1274;97272;-41
2022/10/06 18:29:18;;;;;;;20.40;11.60;;;;;;;12.16;75.00;100006.67;431718;1274;108533;-39
2022/10/06 18:39:29;;;;;;;27.20;13.30;;;;;;;11.87;75.12;100013.74;431656;1274;97947;-40
2022/10/06 18:49:37;;;;;;;22.00;11.80;;;;;;;11.63;75.59;100014.73;431478;1274;111318;-41
2022/10/06 18:59:44;;;;;;;23.30;12.00;;;;;;;11.45;75.65;100025.88;431373;1274;109120;-41
2022/10/06 19:09:52;;;;;;;25.90;15.90;;;;;;;11.28;75.77;100027.48;431230;1274;97505;-41
2022/10/06 19:19:59;;;;;;;31.00;14.80;;;;;;;11.11;75.95;100033.96;431582;1274;111013;-40
2022/10/06 19:30:08;;;;;;;19.40;9.60;;;;;;;10.98;76.22;100038.69;431337;1274;109523;-41
2022/10/06 19:40:15;;;;;;;17.30;9.70;;;;;;;10.82;76.31;100047.05;431649;1274;97906;-40
2022/10/06 19:50:23;;;;;;;15.90;7.20;;;;;;;10.67;76.59;100055.31;431329;1274;111123;-39
2022/10/06 20:00:30;;;;;;;14.40;7.00;;;;;;;10.36;76.49;100062.41;431311;1274;108932;-40
2022/10/06 20:10:38;;;;;;;12.30;8.20;;;;;;;10.16;76.68;100066.78;431370;1274;97900;-39
2022/10/06 20:20:55;;;;;;;21.00;12.30;;;;;;;10.07;77.05;100071.02;431358;1274;110009;-40
2022/10/06 20:31:03;;;;;;;38.90;17.30;;;;;;;9.92;77.15;100071.33;431381;1274;108836;-40
2022/10/06 20:41:08;;;;;;;26.00;13.60;;;;;;;9.86;77.41;100079.16;431633;1274;98050;-40
2022/10/06 20:51:16;;;;;;;36.10;18.80;;;;;;;9.72;77.49;100083.52;431313;1274;108878;-40
2022/10/06 21:01:24;;;;;;;36.70;21.90;;;;;;;9.64;77.82;100088.91;431367;1274;97907;-40
2022/10/06 21:11:32;;;;;;;41.90;23.80;;;;;;;9.50;77.90;100096.58;431333;1274;111266;-40
2022/10/06 21:21:40;;;;;;;36.20;22.80;;;;;;;9.38;78.20;100091.40;431462;1274;109611;-40
2022/10/06 21:31:48;;;;;;;33.60;22.30;;;;;;;9.15;78.27;100102.22;431252;1273;97958;-39
2022/10/06 21:41:55;;;;;;;34.50;19.90;;;;;;;8.91;78.20;100105.84;431307;1274;111431;-40
2022/10/06 22:02:09;;;;;;;33.60;20.80;;;;;;;8.59;78.69;100104.64;430864;1274;97936;-40
2022/10/06 22:12:17;;;;;;;29.20;18.40;;;;;;;8.70;79.24;100099.84;430897;1274;166367;-40
2022/10/06 22:22:24;;;;;;;30.10;15.60;;;;;;;8.76;78.91;100097.98;431275;1274;97891;-40
2022/10/06 22:33:10;;;;;;;31.70;17.90;;;;;;;8.57;78.94;100100.05;408811;1336;635406;-39
2022/10/06 22:43:18;;;;;;;37.00;20.60;;;;;;;8.30;79.26;100095.85;418100;1304;255142;-40
2022/10/06 23:03:34;;;;;;;20.70;13.40;;;;;;;7.98;79.47;100096.20;418537;1297;109410;-40
2022/10/06 23:13:42;;;;;;;27.00;16.00;;;;;;;8.04;79.74;100103.99;418826;1305;94476;-40
2022/10/06 23:23:51;;;;;;;37.10;20.40;;;;;;;7.99;79.91;100109.35;420867;1302;107857;-40
2022/10/06 23:33:59;;;;;;;47.20;27.60;;;;;;;7.89;80.07;100110.08;420199;1301;107268;-40
2022/10/06 23:44:06;;;;;;;50.80;30.40;;;;;;;7.76;80.15;100104.24;420009;1301;95995;-40
2022/10/06 23:54:14;;;;;;;52.00;29.90;;;;;;;7.67;80.35;100105.31;420224;1292;107674;-40
